KROX/ROX METAR and TAF weather

Enter ICAO airport designator
Station Type Date Time Source
KROX METAR 2020/04/02 04:16 UTC NOAA

KROX 020416Z AUTO 12009KT 10SM -DZ OVC048 07/01 A2995 RMK AO2 TSNO


Station Type Date Time Source
KROX Decoded METAR 2020/04/02 04:16 UTC NOAA

Roseau, Roseau Municipal Airport/Rudy Billberg Field, MN, United States (KROX) 48-51N 095-42W
Apr 02, 2020 - 12:16 AM EDT / 2020.04.02 0416 UTC
Wind: from the ESE (120 degrees) at 10 MPH (9 KT):0
Visibility: 10 mile(s):0
Sky conditions: overcast
Weather: light drizzle
Temperature: 44 F (7 C)
Dew Point: 33 F (1 C)
Relative Humidity: 65%
Pressure (altimeter): 29.95 in. Hg (1014 hPa)
ob: KROX 020416Z AUTO 12009KT 10SM -DZ OVC048 07/01 A2995 RMK AO2 TSNO
cycle: 4

Station Type Date Time Source
KROX TAF UTC NOAA

Error!

Example: see airport list